createdAt,value
2018-09-15T00:00:40.029Z,11.52
2018-09-15T00:03:09.688Z,11.43
2018-09-15T00:05:39.575Z,11.40
2018-09-15T00:08:08.983Z,11.45
2018-09-15T00:10:38.367Z,11.33
2018-09-15T00:13:07.784Z,11.38
2018-09-15T00:15:37.179Z,11.31
2018-09-15T00:18:09.522Z,11.23
2018-09-15T00:20:39.017Z,11.17
2018-09-15T00:23:09.188Z,11.06
2018-09-15T00:25:38.678Z,11.11
2018-09-15T00:28:08.234Z,11.15
2018-09-15T00:30:37.616Z,11.19
2018-09-15T00:33:07.035Z,11.24
2018-09-15T00:35:36.438Z,11.26
2018-09-15T00:38:05.846Z,11.31
2018-09-15T00:40:35.227Z,11.35
2018-09-15T00:43:04.635Z,11.28
2018-09-15T00:45:34.025Z,11.33
2018-09-15T00:48:03.407Z,11.43
2018-09-15T00:50:32.763Z,11.44
2018-09-15T00:53:02.151Z,11.52
2018-09-15T00:55:31.525Z,11.57
2018-09-15T00:58:00.928Z,11.51
2018-09-15T01:00:30.361Z,11.61
2018-09-15T01:02:59.762Z,11.67
2018-09-15T01:05:29.175Z,11.69
2018-09-15T01:07:58.542Z,11.74
2018-09-15T01:10:27.915Z,11.79
2018-09-15T01:12:57.312Z,11.81
2018-09-15T01:15:26.681Z,11.92
2018-09-15T01:17:56.062Z,11.89
2018-09-15T01:20:25.522Z,11.85
2018-09-15T01:22:54.919Z,11.74
2018-09-15T01:25:24.367Z,11.69
2018-09-15T01:27:53.761Z,11.67
2018-09-15T01:30:23.126Z,11.71
2018-09-15T01:32:52.534Z,11.64
2018-09-15T01:35:21.916Z,11.49
2018-09-15T01:37:51.307Z,11.35
2018-09-15T01:40:20.689Z,11.40
2018-09-15T01:42:50.081Z,11.29
2018-09-15T01:45:19.483Z,11.28
2018-09-15T01:47:48.850Z,11.08
2018-09-15T01:50:18.218Z,11.05
2018-09-15T01:52:47.674Z,10.94
2018-09-15T01:55:17.044Z,10.85
2018-09-15T01:57:46.452Z,10.79
2018-09-15T02:00:15.830Z,10.68
2018-09-15T02:02:45.196Z,10.68
2018-09-15T02:05:14.569Z,10.61
2018-09-15T02:07:44.023Z,10.45
2018-09-15T02:10:13.394Z,10.37
2018-09-15T02:12:42.758Z,10.35
2018-09-15T02:15:12.134Z,10.24
2018-09-15T02:17:41.531Z,10.08
2018-09-15T02:20:10.961Z,10.09
2018-09-15T02:22:40.419Z,9.93
2018-09-15T02:25:09.762Z,9.86
2018-09-15T02:27:39.118Z,9.80
2018-09-15T02:30:08.524Z,9.74
2018-09-15T02:32:37.890Z,9.79
2018-09-15T02:35:07.251Z,9.77
2018-09-15T02:37:36.626Z,9.77
2018-09-15T02:40:06.041Z,9.70
2018-09-15T02:42:35.422Z,9.55
2018-09-15T02:45:04.842Z,9.50
2018-09-15T02:47:34.207Z,9.42
2018-09-15T02:50:03.625Z,9.40
2018-09-15T02:52:32.982Z,9.47
2018-09-15T02:55:02.363Z,9.35
2018-09-15T02:57:31.770Z,9.43
2018-09-15T03:00:01.126Z,9.42
2018-09-15T03:02:30.525Z,9.39
2018-09-15T03:04:59.870Z,9.22
2018-09-15T03:07:29.238Z,9.19
2018-09-15T03:09:58.636Z,9.19
2018-09-15T03:12:27.970Z,9.23
2018-09-15T03:14:57.325Z,9.02
2018-09-15T03:17:26.734Z,8.89
2018-09-15T03:19:56.147Z,8.94
2018-09-15T03:22:25.525Z,8.84
2018-09-15T03:24:54.890Z,8.82
2018-09-15T03:27:24.290Z,8.84
2018-09-15T03:29:53.650Z,8.74
2018-09-15T03:32:23.030Z,8.83
2018-09-15T03:34:52.454Z,8.77
2018-09-15T03:37:21.807Z,8.73
2018-09-15T03:39:51.183Z,8.61
2018-09-15T03:42:20.578Z,8.59
2018-09-15T03:44:49.942Z,8.58
2018-09-15T03:47:19.313Z,8.57
2018-09-15T03:49:48.673Z,8.61
2018-09-15T03:52:18.019Z,8.70
2018-09-15T03:54:47.398Z,8.59
2018-09-15T03:57:16.758Z,8.57
2018-09-15T03:59:46.116Z,8.41
2018-09-15T04:02:15.510Z,8.30
2018-09-15T04:04:44.892Z,8.31
2018-09-15T04:07:14.274Z,8.30
2018-09-15T04:09:43.634Z,8.39
2018-09-15T04:12:12.998Z,8.20
2018-09-15T04:14:42.370Z,8.33
2018-09-15T04:17:11.733Z,8.18
2018-09-15T04:19:41.158Z,8.16
2018-09-15T04:22:10.514Z,8.09
2018-09-15T04:24:39.876Z,8.13
2018-09-15T04:27:09.394Z,8.07
2018-09-15T04:29:38.746Z,8.02
2018-09-15T04:32:08.210Z,7.95
2018-09-15T04:34:37.616Z,8.04
2018-09-15T04:37:07.008Z,8.04
2018-09-15T04:39:36.380Z,7.99
2018-09-15T04:42:05.762Z,7.95
2018-09-15T04:44:35.151Z,8.01
2018-09-15T04:47:04.531Z,8.06
2018-09-15T04:49:33.903Z,7.87
2018-09-15T04:52:03.282Z,7.93
2018-09-15T04:54:32.650Z,7.88
2018-09-15T04:57:02.108Z,7.85
2018-09-15T04:59:31.468Z,7.93
2018-09-15T05:02:00.824Z,7.91
2018-09-15T05:04:30.303Z,7.90
2018-09-15T05:06:59.659Z,7.92
2018-09-15T05:09:29.014Z,7.92
2018-09-15T05:11:58.397Z,7.99
2018-09-15T05:14:27.746Z,8.15
2018-09-15T05:16:57.103Z,8.11
2018-09-15T05:19:26.473Z,8.18
2018-09-15T05:21:55.838Z,8.06
2018-09-15T05:24:25.277Z,8.05
2018-09-15T05:26:54.642Z,8.22
2018-09-15T05:29:24.319Z,8.28
2018-09-15T05:31:53.936Z,8.34
2018-09-15T05:34:23.513Z,8.55
2018-09-15T05:36:53.148Z,8.53
2018-09-15T05:39:22.758Z,8.57
2018-09-15T05:41:52.369Z,8.60
2018-09-15T05:44:22.016Z,8.64
2018-09-15T05:46:51.782Z,8.80
2018-09-15T05:49:21.446Z,8.79
2018-09-15T05:51:51.518Z,8.94
2018-09-15T05:54:21.166Z,9.09
2018-09-15T05:56:50.811Z,9.10
2018-09-15T05:59:20.477Z,9.05
2018-09-15T06:01:50.241Z,9.06
2018-09-15T06:04:19.954Z,9.05
2018-09-15T06:06:49.665Z,9.04
2018-09-15T06:09:19.217Z,9.09
2018-09-15T06:11:48.826Z,9.23
2018-09-15T06:14:18.630Z,9.19
2018-09-15T06:16:48.264Z,9.23
2018-09-15T06:19:17.897Z,9.26
2018-09-15T06:21:47.534Z,9.37
2018-09-15T06:24:17.224Z,9.39
2018-09-15T06:26:46.922Z,9.44
2018-09-15T06:29:16.507Z,9.51
2018-09-15T06:31:46.184Z,9.60
2018-09-15T06:34:15.872Z,9.81
2018-09-15T06:36:45.682Z,9.90
2018-09-15T06:39:15.525Z,10.08
2018-09-15T06:41:45.226Z,10.29
2018-09-15T06:44:14.823Z,10.40
2018-09-15T06:46:44.453Z,10.60
2018-09-15T06:49:13.842Z,10.81
2018-09-15T06:51:43.206Z,10.96
2018-09-15T06:54:12.606Z,11.10
2018-09-15T06:56:41.974Z,11.25
2018-09-15T06:59:11.358Z,11.33
2018-09-15T07:01:41.694Z,11.48
2018-09-15T07:04:12.618Z,11.58
2018-09-15T07:06:42.339Z,11.76
2018-09-15T07:09:13.927Z,11.90
2018-09-15T07:11:43.454Z,12.05
2018-09-15T07:14:12.870Z,12.21
2018-09-15T07:16:42.306Z,12.37
2018-09-15T07:19:11.710Z,12.50
2018-09-15T07:21:41.175Z,12.52
2018-09-15T07:24:10.570Z,12.72
2018-09-15T07:26:39.947Z,12.92
2018-09-15T07:29:09.327Z,13.08
2018-09-15T07:31:38.879Z,13.26
2018-09-15T07:34:08.338Z,13.40
2018-09-15T07:36:37.740Z,13.48
2018-09-15T07:39:10.123Z,13.54
2018-09-15T07:41:39.702Z,13.90
2018-09-15T07:44:09.090Z,14.05
2018-09-15T07:46:38.490Z,14.06
2018-09-15T07:49:07.864Z,14.18
2018-09-15T07:51:37.271Z,14.36
2018-09-15T07:54:06.684Z,14.57
2018-09-15T07:56:36.077Z,14.69
2018-09-15T07:59:05.553Z,14.77
2018-09-15T08:01:35.270Z,14.80
2018-09-15T08:04:04.685Z,14.95
2018-09-15T08:06:35.381Z,15.08
2018-09-15T08:09:05.699Z,15.41
2018-09-15T08:11:35.565Z,15.52
2018-09-15T08:14:05.083Z,15.44
2018-09-15T08:16:35.307Z,15.52
2018-09-15T08:19:04.706Z,15.65
2018-09-15T08:21:35.254Z,15.58
2018-09-15T08:24:04.670Z,15.86
2018-09-15T08:26:35.501Z,15.94
2018-09-15T08:29:04.713Z,16.09
2018-09-15T08:31:35.342Z,16.29
2018-09-15T08:34:04.713Z,16.41
2018-09-15T08:36:35.213Z,16.43
2018-09-15T08:39:05.310Z,16.54
2018-09-15T08:41:35.222Z,16.58
2018-09-15T08:44:04.614Z,16.64
2018-09-15T08:46:35.242Z,16.76
2018-09-15T08:49:04.653Z,16.93
2018-09-15T08:51:35.270Z,17.00
2018-09-15T08:54:04.676Z,17.02
2018-09-15T08:56:35.314Z,17.09
2018-09-15T08:59:04.721Z,17.22
2018-09-15T09:01:35.506Z,17.16
2018-09-15T09:04:04.925Z,17.43
2018-09-15T09:06:35.223Z,17.42
2018-09-15T09:09:07.406Z,17.63
2018-09-15T09:11:36.912Z,17.66
2018-09-15T09:14:07.222Z,17.92
2018-09-15T09:16:36.954Z,18.09
2018-09-15T09:19:07.513Z,18.14
2018-09-15T09:21:37.366Z,18.22
2018-09-15T09:24:06.906Z,18.41
2018-09-15T09:26:36.337Z,18.69
2018-09-15T09:29:05.940Z,18.59
2018-09-15T09:31:35.583Z,18.67
2018-09-15T09:34:05.152Z,18.70
2018-09-15T09:36:35.695Z,18.90
2018-09-15T09:39:08.531Z,18.70
2018-09-15T09:41:38.469Z,18.82
2018-09-15T09:44:08.391Z,18.69
2018-09-15T09:46:38.024Z,18.85
2018-09-15T09:49:07.482Z,18.87
2018-09-15T09:51:36.924Z,19.10
2018-09-15T09:54:06.338Z,19.08
2018-09-15T09:56:35.703Z,19.52
2018-09-15T09:59:05.270Z,19.51
2018-09-15T10:01:40.775Z,19.12
2018-09-15T10:04:10.210Z,19.16
2018-09-15T10:06:39.594Z,19.18
2018-09-15T10:09:10.984Z,19.51
2018-09-15T10:11:41.614Z,19.63
2018-09-15T10:14:11.385Z,19.15
2018-09-15T10:16:40.785Z,19.11
2018-09-15T10:19:10.142Z,18.91
2018-09-15T10:21:39.571Z,18.97
2018-09-15T10:24:08.951Z,19.17
2018-09-15T10:26:38.328Z,19.62
2018-09-15T10:29:08.038Z,19.76
2018-09-15T10:31:37.439Z,19.20
2018-09-15T10:34:06.828Z,18.89
2018-09-15T10:36:36.246Z,18.84
2018-09-15T10:39:08.885Z,19.32
2018-09-15T10:41:38.261Z,19.21
2018-09-15T10:44:07.887Z,18.91
2018-09-15T10:46:37.342Z,18.89
2018-09-15T10:49:06.706Z,18.99
2018-09-15T10:51:36.199Z,19.05
2018-09-15T10:54:05.578Z,18.82
2018-09-15T10:56:35.721Z,18.80
2018-09-15T10:59:05.147Z,18.64
2018-09-15T11:01:35.754Z,18.64
2018-09-15T11:04:05.159Z,18.79
2018-09-15T11:06:35.801Z,19.08
2018-09-15T11:09:08.748Z,18.91
2018-09-15T11:11:38.191Z,18.54
2018-09-15T11:14:07.613Z,18.58
2018-09-15T11:16:37.134Z,18.96
2018-09-15T11:19:06.570Z,19.18
2018-09-15T11:21:35.938Z,19.26
2018-09-15T11:24:05.312Z,18.96
2018-09-15T11:26:35.712Z,18.75
2018-09-15T11:29:05.121Z,18.71
2018-09-15T11:31:36.129Z,18.35
2018-09-15T11:34:05.990Z,18.71
2018-09-15T11:36:36.236Z,18.69
2018-09-15T11:39:08.474Z,19.03
2018-09-15T11:41:37.866Z,18.95
2018-09-15T11:44:07.546Z,18.95
2018-09-15T11:46:36.935Z,18.96
2018-09-15T11:49:06.403Z,19.26
2018-09-15T11:51:35.779Z,19.51
2018-09-15T11:54:05.194Z,19.95
2018-09-15T11:56:35.802Z,20.64
2018-09-15T11:59:05.223Z,21.26
2018-09-15T12:01:35.822Z,21.56
2018-09-15T12:04:05.186Z,21.41
2018-09-15T12:06:35.974Z,21.53
2018-09-15T12:09:07.454Z,21.36
2018-09-15T12:11:36.856Z,20.74
2018-09-15T12:14:06.334Z,21.34
2018-09-15T12:16:36.063Z,21.34
2018-09-15T12:19:05.462Z,21.48
2018-09-15T12:21:36.434Z,21.53
2018-09-15T12:24:06.317Z,21.10
2018-09-15T12:26:36.617Z,21.67
2018-09-15T12:29:06.029Z,21.45
2018-09-15T12:31:35.976Z,21.30
2018-09-15T12:34:05.355Z,21.73
2018-09-15T12:36:36.006Z,21.16
2018-09-15T12:39:07.630Z,21.02
2018-09-15T12:41:37.506Z,20.66
2018-09-15T12:44:07.547Z,20.78
2018-09-15T12:46:37.731Z,20.79
2018-09-15T12:49:07.876Z,20.24
2018-09-15T12:51:37.259Z,20.45
2018-09-15T12:54:07.415Z,20.32
2018-09-15T12:56:36.812Z,20.33
2018-09-15T12:59:06.779Z,20.48
2018-09-15T13:01:36.170Z,19.83
2018-09-15T13:04:05.558Z,20.02
2018-09-15T13:06:35.898Z,20.36
2018-09-15T13:09:07.923Z,20.21
2018-09-15T13:11:37.304Z,19.87
2018-09-15T13:14:07.186Z,19.93
2018-09-15T13:16:36.571Z,19.82
2018-09-15T13:19:06.039Z,19.76
2018-09-15T13:21:36.118Z,19.67
2018-09-15T13:24:05.566Z,19.74
2018-09-15T13:26:36.324Z,19.69
2018-09-15T13:29:05.739Z,19.62
2018-09-15T13:31:36.379Z,19.88
2018-09-15T13:34:05.870Z,19.89
2018-09-15T13:36:36.258Z,19.81
2018-09-15T13:39:08.058Z,19.36
2018-09-15T13:41:37.438Z,19.40
2018-09-15T13:44:06.925Z,19.39
2018-09-15T13:46:36.379Z,19.43
2018-09-15T13:49:06.692Z,19.70
2018-09-15T13:51:36.543Z,19.26
2018-09-15T13:54:06.250Z,19.58
2018-09-15T13:56:36.713Z,19.55
2018-09-15T13:59:06.480Z,19.37
2018-09-15T14:01:36.310Z,19.53
2018-09-15T14:04:05.731Z,19.49
2018-09-15T14:06:36.326Z,19.39
2018-09-15T14:09:08.170Z,19.28
2018-09-15T14:11:37.811Z,19.34
2018-09-15T14:14:07.498Z,19.32
2018-09-15T14:16:36.948Z,19.38
2018-09-15T14:19:06.394Z,19.27
2018-09-15T14:21:36.493Z,18.98
2018-09-15T14:24:05.938Z,19.00
2018-09-15T14:26:36.625Z,18.97
2018-09-15T14:29:06.072Z,18.88
2018-09-15T14:31:36.598Z,19.02
2018-09-15T14:34:05.995Z,19.06
2018-09-15T14:36:36.459Z,18.94
2018-09-15T14:39:09.434Z,19.11
2018-09-15T14:41:38.912Z,18.92
2018-09-15T14:44:08.328Z,18.96
2018-09-15T14:46:37.968Z,19.20
2018-09-15T14:49:08.194Z,19.19
2018-09-15T14:51:38.318Z,19.05
2018-09-15T14:54:08.708Z,18.73
2018-09-15T14:56:38.600Z,18.97
2018-09-15T14:59:08.834Z,19.14
2018-09-15T15:01:39.716Z,18.89
2018-09-15T15:04:09.531Z,18.80
2018-09-15T15:06:39.434Z,18.93
2018-09-15T15:09:10.354Z,18.85
2018-09-15T15:11:40.171Z,18.80
2018-09-15T15:14:10.770Z,18.89
2018-09-15T15:16:40.412Z,19.12
2018-09-15T15:19:10.479Z,19.25
2018-09-15T15:21:40.787Z,19.35
2018-09-15T15:24:11.283Z,19.43
2018-09-15T15:26:40.960Z,19.30
2018-09-15T15:29:10.782Z,19.15
2018-09-15T15:31:40.866Z,19.03
2018-09-15T15:34:10.752Z,19.25
2018-09-15T15:36:41.338Z,19.03
2018-09-15T15:39:12.385Z,18.77
2018-09-15T15:41:42.386Z,18.98
2018-09-15T15:44:12.454Z,18.91
2018-09-15T15:46:42.238Z,18.62
2018-09-15T15:49:12.656Z,18.32
2018-09-15T15:51:42.904Z,18.48
2018-09-15T15:54:13.314Z,18.72
2018-09-15T15:56:43.441Z,18.73
2018-09-15T15:59:13.434Z,18.99
2018-09-15T16:01:43.474Z,19.42
2018-09-15T16:04:13.497Z,20.53
2018-09-15T16:06:43.567Z,20.72
2018-09-15T16:09:13.485Z,20.35
2018-09-15T16:11:43.594Z,20.07
2018-09-15T16:14:13.786Z,20.14
2018-09-15T16:16:44.114Z,20.14
2018-09-15T16:19:15.042Z,19.73
2018-09-15T16:21:45.189Z,19.38
2018-09-15T16:24:15.206Z,19.38
2018-09-15T16:26:45.269Z,19.28
2018-09-15T16:29:14.659Z,19.31
2018-09-15T16:31:44.082Z,19.23
2018-09-15T16:34:13.492Z,19.21
2018-09-15T16:36:42.910Z,19.42
2018-09-15T16:39:13.239Z,19.08
2018-09-15T16:41:42.720Z,18.85
2018-09-15T16:44:12.098Z,18.65
2018-09-15T16:46:41.496Z,18.86
2018-09-15T16:49:10.901Z,18.68
2018-09-15T16:51:40.226Z,19.28
2018-09-15T16:54:09.627Z,19.75
2018-09-15T16:56:39.014Z,19.66
2018-09-15T16:59:08.543Z,19.92
2018-09-15T17:01:37.919Z,19.97
2018-09-15T17:04:07.318Z,19.71
2018-09-15T17:06:37.545Z,19.66
2018-09-15T17:09:10.688Z,19.75
2018-09-15T17:11:40.063Z,19.78
2018-09-15T17:14:09.451Z,19.61
2018-09-15T17:16:39.012Z,19.71
2018-09-15T17:19:08.234Z,19.39
2018-09-15T17:21:37.817Z,19.22
2018-09-15T17:24:07.547Z,19.16
2018-09-15T17:26:37.744Z,18.99
2018-09-15T17:29:07.129Z,18.73
2018-09-15T17:31:37.751Z,18.71
2018-09-15T17:34:07.223Z,18.73
2018-09-15T17:36:37.734Z,18.68
2018-09-15T17:39:10.347Z,18.56
2018-09-15T17:41:39.770Z,18.29
2018-09-15T17:44:09.266Z,18.11
2018-09-15T17:46:38.667Z,17.87
2018-09-15T17:49:08.059Z,17.67
2018-09-15T17:51:37.698Z,17.56
2018-09-15T17:54:07.263Z,17.47
2018-09-15T17:56:37.755Z,17.34
2018-09-15T17:59:07.150Z,17.17
2018-09-15T18:01:37.833Z,16.94
2018-09-15T18:04:07.326Z,16.74
2018-09-15T18:06:37.703Z,16.41
2018-09-15T18:09:08.378Z,16.39
2018-09-15T18:11:37.758Z,16.28
2018-09-15T18:14:07.138Z,16.11
2018-09-15T18:16:37.774Z,16.01
2018-09-15T18:19:07.138Z,15.97
2018-09-15T18:21:37.771Z,15.74
2018-09-15T18:24:07.851Z,15.64
2018-09-15T18:26:38.314Z,15.53
2018-09-15T18:29:08.503Z,15.39
2018-09-15T18:31:38.381Z,15.22
2018-09-15T18:34:09.318Z,15.23
2018-09-15T18:36:39.157Z,15.19
2018-09-15T18:39:11.080Z,15.16
2018-09-15T18:41:40.957Z,15.14
2018-09-15T18:44:10.836Z,15.09
2018-09-15T18:46:40.732Z,15.01
2018-09-15T18:49:10.693Z,14.98
2018-09-15T18:51:40.601Z,14.95
2018-09-15T18:54:11.288Z,14.99
2018-09-15T18:56:41.287Z,14.86
2018-09-15T18:59:11.675Z,14.82
2018-09-15T19:01:41.977Z,14.81
2018-09-15T19:04:11.988Z,14.71
2018-09-15T19:06:41.706Z,14.57
2018-09-15T19:09:12.899Z,14.42
2018-09-15T19:11:44.305Z,14.27
2018-09-15T19:14:16.521Z,14.23
2018-09-15T19:16:48.481Z,14.12
2018-09-15T19:19:21.156Z,14.01
2018-09-15T19:21:54.304Z,13.89
2018-09-15T19:24:27.470Z,13.96
2018-09-15T19:27:00.677Z,13.94
2018-09-15T19:29:32.646Z,13.83
2018-09-15T19:32:05.088Z,13.82
2018-09-15T19:34:36.704Z,13.84
2018-09-15T19:37:07.198Z,13.85
2018-09-15T19:39:37.427Z,13.76
2018-09-15T19:42:07.817Z,13.71
2018-09-15T19:44:38.330Z,13.62
2018-09-15T19:47:08.162Z,13.61
2018-09-15T19:49:38.351Z,13.55
2018-09-15T19:52:09.006Z,13.50
2018-09-15T19:54:39.447Z,13.43
2018-09-15T19:57:11.503Z,13.30
2018-09-15T19:59:42.933Z,13.36
2018-09-15T20:02:13.742Z,13.36
2018-09-15T20:04:44.109Z,13.31
2018-09-15T20:07:16.086Z,13.28
2018-09-15T20:09:46.929Z,13.27
2018-09-15T20:12:18.848Z,13.23
2018-09-15T20:14:50.186Z,13.15
2018-09-15T20:17:18.499Z,13.05
2018-09-15T20:19:46.717Z,12.95
2018-09-15T20:22:17.491Z,12.83
2018-09-15T20:24:47.528Z,12.88
2018-09-15T20:27:18.672Z,12.81
2018-09-15T20:29:48.424Z,12.80
2018-09-15T20:32:18.448Z,12.72
2018-09-15T20:34:48.250Z,12.77
2018-09-15T20:37:18.042Z,12.72
2018-09-15T20:39:47.431Z,12.56
2018-09-15T20:42:16.830Z,12.58
2018-09-15T20:44:46.257Z,12.52
2018-09-15T20:47:16.156Z,12.54
2018-09-15T20:49:45.542Z,12.56
2018-09-15T20:52:14.972Z,12.54
2018-09-15T20:54:44.574Z,12.50
2018-09-15T20:57:14.003Z,12.46
2018-09-15T20:59:44.079Z,12.54
2018-09-15T21:02:13.683Z,12.65
2018-09-15T21:04:43.695Z,12.59
2018-09-15T21:07:13.535Z,12.53
2018-09-15T21:09:43.199Z,12.51
2018-09-15T21:12:12.614Z,12.46
2018-09-15T21:14:42.018Z,12.44
2018-09-15T21:17:11.693Z,12.42
2018-09-15T21:19:41.077Z,12.53
2018-09-15T21:22:10.458Z,12.46
2018-09-15T21:24:39.834Z,12.43
2018-09-15T21:27:09.284Z,12.44
2018-09-15T21:29:38.763Z,12.36
2018-09-15T21:32:08.113Z,12.33
2018-09-15T21:34:37.490Z,12.30
2018-09-15T21:37:07.436Z,12.32
2018-09-15T21:39:36.830Z,12.38
2018-09-15T21:42:06.239Z,12.32
2018-09-15T21:44:35.703Z,12.28
2018-09-15T21:47:05.097Z,12.26
2018-09-15T21:49:34.600Z,12.36
2018-09-15T21:52:03.986Z,12.38
2018-09-15T21:54:33.422Z,12.38
2018-09-15T21:57:02.893Z,12.31
2018-09-15T21:59:32.277Z,12.26
2018-09-15T22:02:01.667Z,12.22
2018-09-15T22:04:31.054Z,12.20
2018-09-15T22:07:00.776Z,12.14
2018-09-15T22:09:30.696Z,12.08
2018-09-15T22:12:00.666Z,11.97
2018-09-15T22:14:30.726Z,11.91
2018-09-15T22:17:00.411Z,11.84
2018-09-15T22:19:30.268Z,11.91
2018-09-15T22:22:00.341Z,11.88
2018-09-15T22:24:30.258Z,11.90
2018-09-15T22:27:00.094Z,11.80
2018-09-15T22:29:29.860Z,11.68
2018-09-15T22:31:59.625Z,11.57
2018-09-15T22:34:29.361Z,11.60
2018-09-15T22:37:05.871Z,11.51
2018-09-15T22:39:35.683Z,11.44
2018-09-15T22:42:05.558Z,11.26
2018-09-15T22:44:35.505Z,11.35
2018-09-15T22:47:06.106Z,11.34
2018-09-15T22:49:36.027Z,11.35
2018-09-15T22:52:05.822Z,11.40
2018-09-15T22:54:35.559Z,11.35
2018-09-15T22:57:05.634Z,11.36
2018-09-15T22:59:35.546Z,11.23
2018-09-15T23:02:05.619Z,11.30
2018-09-15T23:04:35.516Z,11.28
2018-09-15T23:07:05.850Z,11.19
2018-09-15T23:09:35.594Z,11.17
2018-09-15T23:12:05.342Z,11.05
2018-09-15T23:14:35.277Z,10.91
2018-09-15T23:17:05.208Z,10.89
2018-09-15T23:19:35.325Z,10.85
2018-09-15T23:22:06.286Z,10.81
2018-09-15T23:24:36.428Z,10.71
2018-09-15T23:27:06.649Z,10.63
2018-09-15T23:29:36.529Z,10.59
2018-09-15T23:32:06.322Z,10.62
2018-09-15T23:34:35.777Z,10.47
2018-09-15T23:37:05.363Z,10.52
2018-09-15T23:39:34.783Z,10.57
2018-09-15T23:42:04.158Z,10.54
2018-09-15T23:44:33.514Z,10.44
2018-09-15T23:47:02.926Z,10.49
2018-09-15T23:49:32.306Z,10.51
2018-09-15T23:52:01.691Z,10.48
2018-09-15T23:54:31.059Z,10.47
2018-09-15T23:57:00.429Z,10.48
2018-09-15T23:59:29.817Z,10.40
